Data for 06/03/2014

Time Sea-Level Adjusted Pressure Absolute Pressure Temperature Relative Humidity Dew Point   
(mb) (inHg) (mb) (inHg) (C) (F) (%) (C) (F)
00:05 1015 29.97 844 24.92 11.9 53.5 58 4.1 39.3
00:10 1015 29.97 844 24.92 12.4 54.3 55 3.6 38.5
00:15 1015 29.97 844 24.92 12.3 54.2 57 4.1 39.5
00:20 1014 29.94 844 24.92 12 53.5 58 4 39.2
00:25 1014 29.94 844 24.92 11.8 53.3 58 3.9 39
00:30 1014 29.94 844 24.92 11.8 53.2 61 4.5 40.1
00:35 1014 29.94 844 24.92 11.4 52.5 62 4.3 39.8
00:40 1015 29.97 844 24.92 11.5 52.6 60 4 39.2
00:45 1014 29.94 844 24.92 11.8 53.2 58 3.8 38.9
00:50 1014 29.94 844 24.92 12.1 53.7 58 4.1 39.4
00:55 1014 29.94 843 24.89 12.2 54 56 3.8 38.8
01:00 1014 29.94 843 24.89 12.3 54.2 57 4 39.2
01:05 1014 29.94 843 24.89 12.2 54 59 4.4 39.9
01:10 1014 29.94 843 24.89 12 53.6 59 4.2 39.6
01:15 1014 29.94 843 24.89 12 53.6 59 4.2 39.5
01:20 1014 29.94 843 24.89 12.2 54 56 3.8 38.9
01:25 1014 29.94 843 24.89 12.5 54.4 55 3.6 38.5
01:30 1014 29.94 843 24.89 12.7 54.9 54 3.7 38.7
01:35 1014 29.94 843 24.89 12.9 55.2 53 3.7 38.6
01:40 1013 29.91 843 24.89 13.2 55.7 52 3.6 38.4
01:45 1013 29.91 843 24.89 13.4 56.1 51 3.5 38.3
01:50 1013 29.91 843 24.89 13.6 56.4 51 3.7 38.6
01:55 1013 29.91 842 24.86 13.5 56.3 52 4 39.1
02:00 1013 29.91 842 24.86 13.3 55.9 52 3.8 38.8
02:05 1013 29.91 842 24.86 13.1 55.6 54 4 39.2
02:10 1013 29.91 842 24.86 13.1 55.5 54 3.9 39.1
02:15 1013 29.91 842 24.86 13 55.4 52 3.3 38
02:20 1013 29.91 842 24.86 13.1 55.6 52 3.6 38.6
02:25 1013 29.91 842 24.86 12.9 55.2 53 3.7 38.7
02:30 1013 29.91 842 24.86 12.8 55.1 53 3.7 38.6
02:35 1013 29.91 842 24.86 12.9 55.2 54 3.8 38.8
02:40 1013 29.91 842 24.86 13 55.4 53 3.7 38.6
02:45 1013 29.91 842 24.86 13.1 55.5 54 3.9 39
02:50 1013 29.91 842 24.86 13 55.3 54 3.8 38.9
02:55 1013 29.91 842 24.86 12.9 55.3 53 3.8 38.8
03:00 1013 29.91 842 24.86 13 55.3 54 3.9 39
03:05 1013 29.91 842 24.86 13 55.4 54 4 39.1
03:10 1013 29.91 842 24.86 13.1 55.6 53 3.8 38.8
03:15 1013 29.91 842 24.86 13.4 56.1 52 3.9 39
03:20 1013 29.91 842 24.86 13.5 56.2 53 4.1 39.4
03:25 1013 29.91 842 24.86 13.3 56 53 4.1 39.4
03:30 1013 29.91 842 24.86 13.3 55.9 53 4 39.2
03:35 1013 29.91 842 24.86 13.2 55.8 54 4.1 39.4
03:40 1013 29.91 842 24.86 13.2 55.7 52 3.7 38.6
03:45 1013 29.91 842 24.86 12.8 55.1 54 3.7 38.6
03:50 1013 29.91 842 24.86 12.7 54.8 54 3.5 38.4
03:55 1013 29.91 842 24.86 12.5 54.5 54 3.6 38.5
04:00 1013 29.91 842 24.86 12.4 54.3 54 3.4 38.2
04:05 1013 29.91 842 24.86 12.6 54.6 54 3.6 38.4
04:10 1013 29.91 842 24.86 12.6 54.6 56 4.1 39.3
04:15 1013 29.91 842 24.86 12.5 54.5 57 4.3 39.7
04:20 1013 29.91 842 24.86 12.4 54.3 58 4.4 40
04:25 1013 29.91 842 24.86 12.3 54.1 60 4.7 40.4
04:30 1013 29.91 842 24.86 12.1 53.7 61 4.8 40.6
04:35 1013 29.91 842 24.86 12 53.6 61 4.7 40.5
04:40 1013 29.91 842 24.86 12.2 54 59 4.5 40.1
04:45 1013 29.91 842 24.86 12.5 54.6 59 4.7 40.5
04:50 1013 29.91 842 24.86 12.6 54.7 58 4.6 40.3
04:55 1013 29.91 842 24.86 12.5 54.5 58 4.6 40.3
05:00 1013 29.91 842 24.86 12.4 54.3 58 4.3 39.8
05:05 1013 29.91 842 24.86 12.5 54.4 57 4.1 39.4
05:10 1013 29.91 842 24.86 12.4 54.3 56 4 39.2
05:15 1013 29.91 842 24.86 12.3 54.1 56 3.9 39
05:20 1013 29.91 842 24.86 12.2 53.9 59 4.4 39.9
05:25 1013 29.91 842 24.86 12 53.6 60 4.5 40.1
05:30 1013 29.91 842 24.86 11.9 53.4 60 4.5 40.1
05:35 1013 29.91 842 24.86 11.9 53.3 60 4.3 39.8
05:40 1013 29.91 842 24.86 11.8 53.2 61 4.5 40.2
05:45 1013 29.91 842 24.86 11.5 52.8 58 3.7 38.6
05:50 1013 29.91 842 24.86 12 53.5 60 4.5 40.1
05:55 1013 29.91 842 24.86 11.8 53.2 62 4.7 40.4
06:00 1013 29.91 842 24.86 11.6 52.8 63 4.8 40.6
06:05 1013 29.91 842 24.86 11.2 52.2 63 4.5 40.1
06:10 1013 29.91 842 24.86 11.4 52.5 63 4.6 40.3
06:15 1013 29.91 842 24.86 11.6 52.9 62 4.6 40.2
06:20 1012 29.88 842 24.86 11.7 53 62 4.7 40.5
06:25 1012 29.88 842 24.86 11.6 53 61 4.4 39.9
06:30 1012 29.88 842 24.86 11.9 53.4 59 4.2 39.5
06:35 1013 29.91 842 24.86 12.6 54.6 57 4.4 40
06:40 1013 29.91 842 24.86 13.4 56 56 4.8 40.6
06:45 1013 29.91 842 24.86 13.6 56.4 58 5.6 42
06:50 1013 29.91 842 24.86 13.2 55.7 59 5.4 41.8
06:55 1013 29.91 842 24.86 13.1 55.7 58 5.1 41.2
07:00 1013 29.91 842 24.86 13.7 56.6 55 4.9 40.9
07:05 1013 29.91 842 24.86 13.3 55.9 56 4.8 40.6
07:10 1013 29.91 842 24.86 12.6 54.8 58 4.6 40.3
07:15 1013 29.91 842 24.86 12.5 54.5 59 4.7 40.5
07:20 1013 29.91 842 24.86 12.4 54.2 58 4.4 40
07:25 1013 29.91 842 24.86 13.6 56.5 54 4.6 40.3
07:30 1013 29.91 842 24.86 14.3 57.7 56 5.6 42.1
07:35 1013 29.91 842 24.86 14.1 57.3 56 5.5 41.9
07:40 1013 29.91 842 24.86 13.9 57.1 58 5.8 42.5
07:45 1013 29.91 842 24.86 14.2 57.6 55 5.4 41.8
07:50 1013 29.91 843 24.89 14.9 58.8 53 5.5 41.8
07:55 1013 29.91 843 24.89 15.2 59.4 52 5.4 41.7
08:00 1013 29.91 843 24.89 15.3 59.5 52 5.6 42
08:05 1013 29.91 843 24.89 14.8 58.7 55 5.8 42.5
08:10 1013 29.91 843 24.89 15.1 59.2 52 5.5 42
08:15 1014 29.94 843 24.89 15.1 59.3 51 5.3 41.5
08:20 1014 29.94 843 24.89 15.5 59.9 51 5.4 41.7
08:25 1014 29.94 843 24.89 15.9 60.6 51 5.9 42.6
08:30 1014 29.94 843 24.89 15 59 53 5.4 41.8
08:35 1013 29.91 843 24.89 14.7 58.5 53 5.4 41.8
08:40 1013 29.91 843 24.89 14.4 57.9 55 5.5 41.9
08:45 1013 29.91 843 24.89 14.3 57.7 55 5.6 42
08:50 1013 29.91 843 24.89 14.2 57.6 58 6.1 42.9
08:55 1013 29.91 842 24.86 13.7 56.6 60 6.1 43.1
09:00 1013 29.91 842 24.86 14.1 57.3 56 5.6 42
09:05 1013 29.91 842 24.86 15.6 60 52 5.9 42.7
09:10 1013 29.91 843 24.89 16 60.8 51 5.9 42.5
09:15 1013 29.91 843 24.89 15.5 59.8 51 5.4 41.7
09:20 1013 29.91 843 24.89 16.7 62.1 47 5.3 41.6
09:25 1013 29.91 843 24.89 17.1 62.9 46 5.7 42.2
09:30 1013 29.91 843 24.89 16.9 62.4 46 5.4 41.8
09:35 1013 29.91 843 24.89 16.6 61.9 47 5.3 41.5
09:40 1013 29.91 843 24.89 16.9 62.3 44 4.8 40.6
09:45 1013 29.91 843 24.89 17.5 63.5 43 4.9 40.8
09:50 1013 29.91 843 24.89 18.1 64.5 41 4.8 40.6
09:55 1013 29.91 843 24.89 18.6 65.4 42 5.4 41.8
10:00 1013 29.91 843 24.89 18.8 65.8 41 5.5 41.8
10:05 1013 29.91 843 24.89 19.2 66.6 41 6 42.7
10:10 1013 29.91 843 24.89 19.7 67.4 38 5 41
10:15 1013 29.91 843 24.89 19.6 67.2 38 5.2 41.4
10:20 1013 29.91 843 24.89 19.3 66.8 40 5.5 42
10:25 1013 29.91 843 24.89 19.6 67.2 37 4.5 40.1
10:30 1013 29.91 843 24.89 19.9 67.8 36 4.5 40
10:35 1013 29.91 843 24.89 20 67.9 37 5.1 41.1
10:40 1013 29.91 843 24.89 20 68.1 35 4.4 39.9
10:45 1013 29.91 843 24.89 20.5 68.9 36 5 41.1
10:50 1013 29.91 843 24.89 20.7 69.2 37 5.5 41.9
10:55 1013 29.91 843 24.89 20.3 68.6 38 5.7 42.2
11:00 1013 29.91 843 24.89 19.3 66.7 39 5 41
11:05 1013 29.91 843 24.89 19.6 67.2 36 4.2 39.6
11:10 1013 29.91 843 24.89 19.7 67.4 34 3.4 38.1
11:15 1013 29.91 843 24.89 20.6 69 33 4.1 39.3
11:20 1013 29.91 843 24.89 21.3 70.3 31 3.7 38.6
11:25 1013 29.91 843 24.89 20.7 69.2 34 4.5 40.1
11:30 1013 29.91 843 24.89 20.9 69.6 32 3.8 38.8
11:35 1013 29.91 843 24.89 21.8 71.2 30 3.8 38.8
11:40 1013 29.91 843 24.89 22 71.6 31 4.3 39.8
11:45 1013 29.91 843 24.89 20.7 69.2 31 3.4 38
11:50 1013 29.91 843 24.89 21.6 70.9 31 3.8 38.9
11:55 1013 29.91 843 24.89 22 71.6 30 4 39.1
12:00 1013 29.91 843 24.89 22.1 71.8 30 3.9 39
12:05 1013 29.91 843 24.89 22.1 71.8 30 3.9 39
12:10 1013 29.91 843 24.89 22.4 72.4 31 4.5 40.1
12:15 1013 29.91 843 24.89 22.4 72.3 32 5 40.9
12:20 1013 29.91 843 24.89 22.7 72.8 28 3.6 38.5
12:25 1013 29.91 843 24.89 22.5 72.5 30 4.2 39.5
12:30 1013 29.91 843 24.89 22.1 71.7 32 4.7 40.5
12:35 1013 29.91 842 24.86 21.9 71.4 30 3.9 38.9
12:40 1013 29.91 842 24.86 22.4 72.2 29 3.6 38.5
12:45 1013 29.91 842 24.86 22.9 73.3 29 4.4 39.8
12:50 1013 29.91 842 24.86 23 73.3 28 3.6 38.4
12:55 1013 29.91 842 24.86 23.1 73.5 28 4 39.3
13:00 1013 29.91 842 24.86 23.1 73.6 27 3.5 38.4
13:05 1013 29.91 842 24.86 22.9 73.3 27 3.1 37.5
13:10 1013 29.91 842 24.86 23.7 74.6 27 3.6 38.6
13:15 1013 29.91 842 24.86 23.4 74.2 25 2.4 36.4
13:20 1013 29.91 842 24.86 24 75.2 25 3.2 37.8
13:25 1013 29.91 842 24.86 24.5 76 24 2.8 37
13:30 1013 29.91 842 24.86 24.1 75.4 24 2.5 36.4
13:35 1013 29.91 842 24.86 23.7 74.7 26 3.2 37.7
13:40 1013 29.91 842 24.86 23.5 74.2 26 3 37.5
13:45 1013 29.91 842 24.86 23.6 74.5 27 3.6 38.4
13:50 1013 29.91 842 24.86 23.2 73.8 27 3.6 38.4
13:55 1013 29.91 842 24.86 22.6 72.7 29 3.7 38.6
14:00 1013 29.91 842 24.86 21.8 71.2 29 3.3 38
14:05 1013 29.91 842 24.86 21.7 71.1 30 3.5 38.2
14:10 1013 29.91 842 24.86 21.8 71.2 31 3.9 39.1
14:15 1013 29.91 842 24.86 22 71.7 29 3.6 38.5
14:20 1013 29.91 842 24.86 22.3 72.2 29 3.7 38.7
14:25 1013 29.91 842 24.86 22.5 72.4 28 3.3 38
14:30 1013 29.91 842 24.86 22.9 73.3 29 4.3 39.7
14:35 1013 29.91 842 24.86 22.6 72.7 28 3.4 38.1
14:40 1013 29.91 842 24.86 22.8 73 26 2.7 36.9
14:45 1013 29.91 842 24.86 23.5 74.3 28 4 39.2
14:50 1013 29.91 842 24.86 23 73.3 28 3.9 39
14:55 1013 29.91 842 24.86 22 71.7 29 3.2 37.8
15:00 1013 29.91 842 24.86 22.2 71.9 28 2.8 37
15:05 1013 29.91 842 24.86 23 73.4 25 2.3 36.2
15:10 1013 29.91 842 24.86 23.1 73.6 26 2.8 37
15:15 1013 29.91 842 24.86 22.4 72.3 32 4.9 40.8
15:20 1013 29.91 842 24.86 21.3 70.4 32 4.2 39.5
15:25 1013 29.91 842 24.86 20.7 69.3 35 5 41
15:30 1013 29.91 842 24.86 19.7 67.5 37 4.9 40.8
15:35 1013 29.91 842 24.86 19 66.3 36 4 39.1
15:40 1013 29.91 842 24.86 18.5 65.3 37 3.7 38.7
15:45 1013 29.91 842 24.86 18.3 64.9 37 3.5 38.4
15:50 1013 29.91 842 24.86 18 64.3 38 3.6 38.5
15:55 1013 29.91 842 24.86 17.7 63.9 40 4 39.1
16:00 1013 29.91 842 24.86 17.5 63.5 41 4.4 39.9
16:05 1013 29.91 842 24.86 17.4 63.4 38 3 37.5
16:10 1013 29.91 842 24.86 17.5 63.6 37 2.8 37.1
16:15 1013 29.91 842 24.86 17.5 63.5 39 3.7 38.6
16:20 1013 29.91 842 24.86 17.4 63.3 39 3.5 38.4
16:25 1013 29.91 842 24.86 17.3 63.2 40 3.6 38.4
16:30 1013 29.91 842 24.86 17.3 63.1 39 3.4 38.1
16:35 1013 29.91 842 24.86 17.3 63.1 39 3.3 38
16:40 1013 29.91 843 24.89 17.2 63 40 3.6 38.4
16:45 1014 29.94 843 24.89 17.3 63.1 43 4.5 40.1
16:50 1014 29.94 843 24.89 17 62.6 48 5.9 42.6
16:55 1014 29.94 843 24.89 16.9 62.4 48 5.9 42.7
17:00 1014 29.94 843 24.89 16.8 62.3 56 8.1 46.5
17:05 1014 29.94 843 24.89 16.4 61.6 56 7.7 45.8
17:10 1014 29.94 843 24.89 16 60.8 55 7 44.6
17:15 1014 29.94 843 24.89 16 60.9 50 5.7 42.2
17:20 1014 29.94 843 24.89 16.1 61 56 7.4 45.3
17:25 1014 29.94 843 24.89 16 60.8 60 8.3 47
17:30 1014 29.94 843 24.89 15.9 60.5 58 7.6 45.7
17:35 1014 29.94 843 24.89 16.1 61 50 5.8 42.5
17:40 1014 29.94 843 24.89 16.5 61.7 52 6.7 44
17:45 1014 29.94 843 24.89 16.6 61.9 53 7.1 44.8
17:50 1014 29.94 843 24.89 16.8 62.2 57 8.4 47.2
17:55 1014 29.94 843 24.89 16.6 61.9 54 7.5 45.5
18:00 1014 29.94 843 24.89 16.4 61.6 54 7.2 44.9
18:05 1014 29.94 843 24.89 16.4 61.5 52 6.6 43.9
18:10 1014 29.94 843 24.89 16.6 61.9 52 6.9 44.3
18:15 1014 29.94 843 24.89 16.7 62.1 52 6.8 44.3
18:20 1014 29.94 843 24.89 16.7 62.1 52 6.9 44.3
18:25 1014 29.94 843 24.89 16.7 62.1 51 6.6 43.8
18:30 1014 29.94 843 24.89 16.6 61.9 52 6.9 44.5
18:35 1014 29.94 843 24.89 16.5 61.8 53 6.9 44.5
18:40 1014 29.94 843 24.89 16.6 62 53 7 44.6
18:45 1014 29.94 843 24.89 16.7 62 48 5.7 42.3
18:50 1014 29.94 843 24.89 16.6 61.9 50 6.1 43
18:55 1014 29.94 843 24.89 16.4 61.6 51 6.4 43.4
19:00 1014 29.94 843 24.89 16.4 61.4 50 5.9 42.7
19:05 1014 29.94 843 24.89 16.3 61.4 51 6.3 43.3
19:10 1014 29.94 843 24.89 16.2 61.2 50 5.8 42.4
19:15 1013 29.91 843 24.89 16.2 61.2 50 5.8 42.4
19:20 1013 29.91 843 24.89 16.1 61.1 50 5.7 42.3
19:25 1014 29.94 843 24.89 16.1 60.9 49 5.5 41.8
19:30 1014 29.94 843 24.89 16.1 60.9 48 5.2 41.4
19:35 1014 29.94 843 24.89 15.9 60.7 50 5.7 42.3
19:40 1014 29.94 843 24.89 15.8 60.4 51 5.8 42.5
19:45 1014 29.94 843 24.89 15.7 60.2 48 4.9 40.8
19:50 1014 29.94 844 24.92 16 60.8 47 4.6 40.3
19:55 1015 29.97 844 24.92 16.3 61.4 46 4.7 40.4
20:00 1015 29.97 844 24.92 16.3 61.3 54 7.1 44.7
20:05 1015 29.97 844 24.92 15.4 59.7 59 7.5 45.4
20:10 1015 29.97 845 24.95 14.3 57.7 63 7.5 45.5
20:15 1015 29.97 845 24.95 13.9 57 65 7.6 45.7
20:20 1016 30 845 24.95 13.6 56.6 67 7.6 45.7
20:25 1016 30 845 24.95 13.5 56.3 69 8 46.4
20:30 1016 30 846 24.98 13.6 56.5 69 8 46.5
20:35 1017 30.03 846 24.98 13.6 56.5 69 8 46.4
20:40 1017 30.03 846 24.98 12.4 54.4 73 7.7 45.9
20:45 1017 30.03 846 24.98 11 51.9 78 7.3 45.2
20:50 1017 30.03 846 24.98 10.7 51.3 75 6.5 43.7
20:55 1017 30.03 846 24.98 10.8 51.5 72 6.1 42.9
21:00 1017 30.03 846 24.98 10.9 51.6 74 6.5 43.6
21:05 1017 30.03 846 24.98 10.6 51.1 77 6.7 44.1
21:10 1017 30.03 847 25.01 10.2 50.4 80 6.9 44.3
21:15 1017 30.03 847 25.01 10.4 50.7 76 6.4 43.5
21:20 1018 30.06 847 25.01 10.7 51.2 77 6.8 44.3
21:25 1018 30.06 847 25.01 10.5 50.8 80 7.2 45
21:30 1018 30.06 847 25.01 10.3 50.5 81 7.2 45
21:35 1018 30.06 847 25.01 10.3 50.6 82 7.5 45.5
21:40 1018 30.06 847 25.01 10.2 50.4 84 7.7 45.8
21:45 1018 30.06 847 25.01 10.3 50.5 83 7.5 45.5
21:50 1018 30.06 847 25.01 10.4 50.6 85 8 46.4
21:55 1018 30.06 847 25.01 10.3 50.6 84 7.7 45.9
22:00 1018 30.06 847 25.01 10.2 50.4 84 7.6 45.6
22:05 1018 30.06 847 25.01 10.2 50.3 84 7.7 45.8
22:10 1018 30.06 847 25.01 10.1 50.1 84 7.5 45.5
22:15 1017 30.03 847 25.01 10.1 50.1 85 7.7 45.9
22:20 1017 30.03 847 25.01 10.1 50.2 85 7.6 45.8
22:25 1017 30.03 847 25.01 10.3 50.5 84 7.7 45.9
22:30 1017 30.03 847 25.01 10.4 50.6 83 7.7 45.8
22:35 1018 30.06 847 25.01 10.5 50.8 83 7.7 45.9
22:40 1018 30.06 847 25.01 10.3 50.6 83 7.6 45.8
22:45 1018 30.06 847 25.01 10.3 50.5 85 7.9 46.1
22:50 1018 30.06 847 25.01 10.1 50.2 88 8.1 46.7
22:55 1018 30.06 847 25.01 10 49.9 87 7.9 46.2
23:00 1018 30.06 847 25.01 10 50 85 7.6 45.7
23:05 1018 30.06 847 25.01 10.1 50.2 82 7.1 44.9
23:10 1018 30.06 847 25.01 10.3 50.5 82 7.3 45.2
23:15 1018 30.06 847 25.01 10.3 50.6 83 7.5 45.5
23:20 1018 30.06 847 25.01 10.5 50.8 83 7.8 46
23:25 1018 30.06 847 25.01 10.5 50.8 84 7.8 46
23:30 1018 30.06 847 25.01 10.6 51 84 8 46.4
23:35 1018 30.06 847 25.01 10.4 50.7 85 8 46.4
23:40 1018 30.06 847 25.01 10.2 50.4 87 8.2 46.8
23:45 1018 30.06 847 25.01 9.9 49.8 89 8.2 46.8
23:50 1018 30.06 847 25.01 9.7 49.4 88 7.8 46.1
23:55 1018 30.06 847 25.01 9.9 49.8 87 7.8 46.1
24:00 1018 30.06 847 25.01 9.7 49.5 88 7.8 46.1